Time;durP1;ratioP1;P1;durP2;ratioP2;P2;SDS_P1;SDS_P2;PMS_P1;PMS_P2;Temp;Humidity;BMP_temperature;BMP_pressure;BME280_temperature;BME280_humidity;BME280_pressure;Samples;Min_cycle;Max_cycle;Signal;HPM_P1;HPM_P2
2022/04/24 00:00:38;;;;;;;;;11.50;10.00;;;;;17.12;39.13;99329.97;4982777;28;45401;-58
2022/04/24 00:03:04;;;;;;;;;9.00;7.25;;;;;17.12;39.17;99322.00;4982427;28;45322;-58
2022/04/24 00:05:29;;;;;;;;;8.25;8.25;;;;;17.11;39.16;99322.94;4982767;28;45520;-58
2022/04/24 00:07:55;;;;;;;;;8.75;8.50;;;;;17.11;39.46;99327.41;4982734;28;45337;-58
2022/04/24 00:10:20;;;;;;;;;10.25;8.75;;;;;17.09;39.25;99322.19;4982423;28;46336;-58
2022/04/24 00:12:46;;;;;;;;;7.50;7.50;;;;;17.08;39.36;99317.84;4982606;28;45318;-58
2022/04/24 00:15:12;;;;;;;;;7.50;7.50;;;;;17.08;39.49;99319.63;4982587;28;45397;-58
2022/04/24 00:17:37;;;;;;;;;7.50;7.50;;;;;17.09;39.38;99327.50;4982127;28;45354;-58
2022/04/24 00:20:03;;;;;;;;;9.00;9.00;;;;;17.08;39.23;99322.28;4982495;28;46728;-58
2022/04/24 00:22:29;;;;;;;;;8.00;7.25;;;;;17.09;39.32;99319.53;4982477;28;45391;-58
2022/04/24 00:24:54;;;;;;;;;8.75;8.75;;;;;17.08;39.49;99323.16;4973627;28;45450;-58
2022/04/24 00:27:19;;;;;;;;;7.00;6.00;;;;;17.08;39.64;99319.63;4982434;28;45445;-58
2022/04/24 00:29:45;;;;;;;;;10.50;10.50;;;;;17.05;39.34;99313.56;4982354;28;45201;-58
2022/04/24 00:32:10;;;;;;;;;9.50;9.00;;;;;17.04;39.57;99306.56;4982011;28;45451;-58
2022/04/24 00:34:35;;;;;;;;;9.00;7.25;;;;;17.03;39.83;99309.31;4980830;28;45500;-58
2022/04/24 00:37:01;;;;;;;;;11.00;9.00;;;;;16.98;39.45;99312.28;4982413;28;45148;-58
2022/04/24 00:39:27;;;;;;;;;10.50;10.50;;;;;16.97;39.42;99302.59;4981792;28;45416;-58
2022/04/24 00:41:52;;;;;;;;;9.25;9.25;;;;;16.92;39.56;99299.38;4982005;28;45270;-58
2022/04/24 00:44:18;;;;;;;;;10.00;7.75;;;;;16.88;39.52;99301.34;4982233;28;45843;-58
2022/04/24 00:47:00;;;;;;;;;10.75;10.75;;;;;16.85;39.55;99303.34;4982223;28;45183;-58
2022/04/24 00:49:26;;;;;;;;;9.75;8.25;;;;;16.79;39.58;99304.59;4981616;28;46490;-58
2022/04/24 00:51:52;;;;;;;;;10.50;9.25;;;;;16.75;39.58;99311.00;4981900;28;45238;-58
2022/04/24 00:54:18;;;;;;;;;11.75;11.75;;;;;16.67;39.59;99310.66;4981844;28;45200;-58
2022/04/24 00:56:44;;;;;;;;;10.25;9.75;;;;;16.64;40.01;99311.72;4981852;28;45572;-58
2022/04/24 00:59:11;;;;;;;;;12.00;11.00;;;;;16.60;39.73;99309.34;4981715;28;45274;-58
2022/04/24 01:01:37;;;;;;;;;13.25;12.75;;;;;16.55;39.74;99314.91;4981730;28;45396;-58
2022/04/24 01:04:05;;;;;;;;;10.50;10.50;;;;;16.48;39.86;99319.75;4980257;28;45325;-58
2022/04/24 01:06:42;;;;;;;;;9.25;8.00;;;;;16.45;39.97;99317.25;4981720;28;45755;-58
2022/04/24 01:09:12;;;;;;;;;10.75;10.75;;;;;16.38;39.87;99315.97;4981312;28;46193;-59
2022/04/24 01:11:38;;;;;;;;;12.00;10.75;;;;;16.33;39.86;99316.22;4980351;28;46328;-59
2022/04/24 01:14:05;;;;;;;;;11.00;9.75;;;;;16.26;40.02;99312.25;4981629;28;45324;-58
2022/04/24 01:16:30;;;;;;;;;12.25;11.25;;;;;16.25;40.05;99318.47;4981775;28;45247;-58
2022/04/24 01:18:57;;;;;;;;;12.00;10.50;;;;;16.19;40.03;99326.81;4981110;28;46284;-58
2022/04/24 01:21:23;;;;;;;;;10.75;8.50;;;;;16.16;40.37;99333.16;4981514;28;45251;-58
2022/04/24 01:23:48;;;;;;;;;9.75;9.50;;;;;16.10;40.34;99330.88;4981502;28;45334;-58
2022/04/24 01:26:13;;;;;;;;;14.00;10.25;;;;;16.07;40.40;99339.00;4980917;28;45223;-58
2022/04/24 01:28:39;;;;;;;;;12.00;9.75;;;;;16.00;40.73;99335.88;4981221;28;45228;-58
2022/04/24 01:31:05;;;;;;;;;13.00;9.50;;;;;15.97;40.51;99345.78;4981250;28;45354;-59
2022/04/24 01:33:31;;;;;;;;;11.50;9.75;;;;;15.88;40.36;99340.06;4968427;28;45357;-58
2022/04/24 01:35:56;;;;;;;;;13.00;13.00;;;;;15.86;40.53;99347.28;4981229;28;45559;-58
2022/04/24 01:38:21;;;;;;;;;12.25;11.50;;;;;15.83;40.52;99347.44;4968480;28;46325;-58
2022/04/24 01:40:47;;;;;;;;;9.25;9.25;;;;;15.76;40.88;99343.44;4980971;28;45396;-58
2022/04/24 01:43:12;;;;;;;;;13.25;11.50;;;;;15.74;40.43;99348.78;4981536;28;45545;-58
2022/04/24 01:45:37;;;;;;;;;15.50;12.75;;;;;15.69;40.86;99355.31;4981260;28;45519;-58
2022/04/24 01:48:03;;;;;;;;;15.50;13.25;;;;;15.64;40.52;99352.06;4980811;28;47564;-58
2022/04/24 01:50:29;;;;;;;;;11.00;11.00;;;;;15.61;40.52;99355.75;4981074;28;45657;-58
2022/04/24 01:52:56;;;;;;;;;11.25;11.25;;;;;15.56;40.73;99352.50;4979881;28;45524;-58
2022/04/24 01:55:21;;;;;;;;;14.25;12.75;;;;;15.50;40.44;99353.69;4981022;28;45335;-58
2022/04/24 01:57:46;;;;;;;;;10.75;9.00;;;;;15.46;40.58;99356.59;4980810;28;46846;-58
2022/04/24 02:00:12;;;;;;;;;11.25;9.25;;;;;15.43;40.96;99362.91;4979588;28;45312;-58
2022/04/24 02:02:38;;;;;;;;;9.25;8.75;;;;;15.38;41.02;99360.56;4980767;28;45275;-58
2022/04/24 02:05:04;;;;;;;;;10.75;10.75;;;;;15.33;41.29;99365.22;4980808;28;45199;-58
2022/04/24 02:07:29;;;;;;;;;13.25;11.50;;;;;15.30;40.63;99368.06;4980840;28;46159;-58
2022/04/24 02:09:54;;;;;;;;;11.00;10.25;;;;;15.26;41.21;99370.00;4980747;28;45297;-58
2022/04/24 02:12:20;;;;;;;;;14.25;11.25;;;;;15.23;41.19;99367.56;4980920;28;45338;-58
2022/04/24 02:14:45;;;;;;;;;13.25;10.75;;;;;15.20;40.89;99366.88;4981067;28;45302;-58
2022/04/24 02:17:10;;;;;;;;;10.75;10.75;;;;;15.16;40.86;99360.03;4980749;28;46336;-58
2022/04/24 02:19:37;;;;;;;;;10.00;10.00;;;;;15.10;41.07;99358.56;4980482;28;45251;-58
2022/04/24 02:22:02;;;;;;;;;12.00;12.00;;;;;15.10;41.51;99369.16;4980713;28;45341;-58
2022/04/24 02:24:28;;;;;;;;;12.00;11.00;;;;;15.07;41.08;99374.63;4972595;28;45263;-58
2022/04/24 02:26:54;;;;;;;;;13.75;13.25;;;;;15.01;41.52;99373.16;4980583;28;47671;-58
2022/04/24 02:29:19;;;;;;;;;11.50;10.00;;;;;15.01;41.59;99378.44;4980528;28;45326;-58
2022/04/24 02:31:45;;;;;;;;;14.00;13.00;;;;;14.98;41.54;99378.63;4980356;28;45263;-58
2022/04/24 02:34:10;;;;;;;;;12.25;11.25;;;;;14.95;41.18;99377.00;4978967;28;45266;-59
2022/04/24 02:36:36;;;;;;;;;12.50;10.50;;;;;14.92;41.17;99387.72;4980365;28;45246;-58
2022/04/24 02:39:01;;;;;;;;;8.25;8.25;;;;;14.90;41.51;99379.00;4979139;28;45271;-58
2022/04/24 02:41:29;;;;;;;;;10.50;10.50;;;;;14.87;41.23;99381.00;4980652;28;45242;-58
2022/04/24 02:43:55;;;;;;;;;11.75;11.00;;;;;14.85;41.32;99388.16;4980367;28;45389;-59
2022/04/24 02:46:20;;;;;;;;;12.75;12.00;;;;;14.81;41.27;99387.44;4980159;28;45454;-58
2022/04/24 02:48:46;;;;;;;;;11.00;10.75;;;;;14.80;41.79;99396.31;4980128;28;45243;-58
2022/04/24 02:51:11;;;;;;;;;14.00;14.00;;;;;14.74;41.57;99386.06;4980309;28;45373;-58
2022/04/24 02:53:36;;;;;;;;;15.25;13.25;;;;;14.70;41.66;99381.88;4980290;28;45559;-58
2022/04/24 02:56:02;;;;;;;;;12.00;12.00;;;;;14.72;41.54;99393.25;4979950;28;45363;-59
2022/04/24 02:58:27;;;;;;;;;13.00;13.00;;;;;14.68;41.52;99397.84;4980115;28;45310;-59
2022/04/24 03:00:54;;;;;;;;;13.00;13.00;;;;;14.67;41.98;99397.91;4980328;28;46022;-58
2022/04/24 03:03:20;;;;;;;;;11.00;10.25;;;;;14.63;41.96;99394.53;4979936;28;45329;-58
2022/04/24 03:05:48;;;;;;;;;10.50;10.25;;;;;14.60;41.83;99403.50;4978553;28;46235;-59
2022/04/24 03:08:15;;;;;;;;;10.50;8.75;;;;;14.57;41.91;99400.16;4980138;28;45234;-58
2022/04/24 03:10:40;;;;;;;;;12.00;12.00;;;;;14.56;41.91;99398.44;4980027;28;45405;-59
2022/04/24 03:13:05;;;;;;;;;12.75;11.50;;;;;14.55;41.71;99405.53;4979930;28;45480;-58
2022/04/24 03:15:31;;;;;;;;;13.00;11.75;;;;;14.51;41.74;99406.59;4979851;28;47114;-59
2022/04/24 03:17:56;;;;;;;;;11.25;11.00;;;;;14.49;42.08;99402.31;4979762;28;45448;-58
2022/04/24 03:20:25;;;;;;;;;17.00;12.25;;;;;14.46;41.78;99411.28;4978887;28;45468;-58
2022/04/24 03:22:51;;;;;;;;;11.00;8.00;;;;;14.43;42.17;99404.34;4979951;28;46317;-58
2022/04/24 03:25:16;;;;;;;;;13.25;12.50;;;;;14.42;41.93;99407.94;4971578;28;45481;-58
2022/04/24 03:27:42;;;;;;;;;12.75;12.25;;;;;14.40;42.25;99412.47;4978543;28;45419;-58
2022/04/24 03:30:10;;;;;;;;;10.50;10.25;;;;;14.39;42.01;99412.50;4979902;28;45218;-58
2022/04/24 03:32:36;;;;;;;;;12.25;10.50;;;;;14.35;42.26;99414.47;4979194;28;45502;-58
2022/04/24 03:35:03;;;;;;;;;12.00;10.00;;;;;14.30;42.29;99406.78;4994577;28;48842;-58
2022/04/24 03:37:29;;;;;;;;;13.25;12.75;;;;;14.30;41.95;99412.06;4978427;28;46419;-58
2022/04/24 03:39:55;;;;;;;;;13.25;12.75;;;;;14.29;41.99;99420.91;4979578;28;45354;-58
2022/04/24 03:42:20;;;;;;;;;13.00;13.00;;;;;14.25;41.94;99414.09;4979615;28;45243;-58
2022/04/24 03:44:46;;;;;;;;;12.50;11.50;;;;;14.23;42.01;99420.38;4979565;28;45437;-58
2022/04/24 03:47:11;;;;;;;;;13.75;11.75;;;;;14.21;42.29;99417.78;4979609;28;45210;-58
2022/04/24 03:49:37;;;;;;;;;11.75;10.75;;;;;14.21;42.26;99420.44;4979876;28;45304;-58
2022/04/24 03:52:03;;;;;;;;;15.75;11.25;;;;;14.18;41.88;99417.97;4982986;28;45219;-59
2022/04/24 03:54:28;;;;;;;;;11.25;10.50;;;;;14.13;42.08;99418.19;4982567;28;46149;-58
2022/04/24 03:56:53;;;;;;;;;11.00;8.50;;;;;14.13;41.99;99423.47;4982914;28;45215;-59
2022/04/24 03:59:19;;;;;;;;;13.50;10.75;;;;;14.12;42.19;99427.06;4982907;28;45167;-58
2022/04/24 04:01:44;;;;;;;;;11.50;11.50;;;;;14.11;42.17;99429.75;4981539;28;45279;-58
2022/04/24 04:04:09;;;;;;;;;10.25;10.25;;;;;14.08;42.37;99425.47;4982451;28;45220;-58
2022/04/24 04:06:35;;;;;;;;;10.75;10.50;;;;;14.06;42.23;99434.41;4982831;28;45233;-58
2022/04/24 04:09:00;;;;;;;;;16.00;12.75;;;;;14.05;42.22;99430.06;4981313;28;45436;-58
2022/04/24 04:11:26;;;;;;;;;11.75;11.25;;;;;14.04;42.61;99425.72;4982902;28;45421;-58
2022/04/24 04:13:52;;;;;;;;;10.75;10.75;;;;;14.01;42.50;99428.50;4982429;28;45640;-58
2022/04/24 04:16:17;;;;;;;;;11.25;10.00;;;;;13.99;42.37;99423.31;4982534;28;45333;-58
2022/04/24 04:18:42;;;;;;;;;14.75;13.00;;;;;13.98;42.26;99425.06;4982329;28;45357;-58
2022/04/24 04:21:08;;;;;;;;;15.25;13.00;;;;;13.94;42.34;99415.59;4981175;28;45556;-58
2022/04/24 04:23:33;;;;;;;;;9.00;9.00;;;;;13.96;42.57;99432.25;4981765;28;46134;-58
2022/04/24 04:25:58;;;;;;;;;11.00;11.00;;;;;13.95;42.55;99443.72;4973558;28;45334;-58
2022/04/24 04:28:24;;;;;;;;;11.50;11.50;;;;;13.93;42.63;99435.00;4981295;28;45806;-58
2022/04/24 04:30:49;;;;;;;;;11.50;11.50;;;;;13.92;42.46;99432.47;4982272;28;45452;-58
2022/04/24 04:33:14;;;;;;;;;15.00;15.00;;;;;13.90;42.58;99435.19;4980507;28;47997;-58
2022/04/24 04:35:40;;;;;;;;;11.50;11.50;;;;;13.89;42.32;99443.19;4981141;28;45350;-59
2022/04/24 04:38:06;;;;;;;;;13.50;13.50;;;;;13.87;42.67;99437.94;4982241;28;45191;-58
2022/04/24 04:40:31;;;;;;;;;11.50;11.50;;;;;13.81;42.49;99439.13;4982145;28;45223;-58
2022/04/24 04:42:57;;;;;;;;;14.50;14.50;;;;;13.82;42.63;99439.97;4981906;28;46726;-58
2022/04/24 04:45:22;;;;;;;;;13.50;12.75;;;;;13.80;42.66;99445.31;4982392;28;45215;-58
2022/04/24 04:47:47;;;;;;;;;13.25;13.00;;;;;13.81;42.49;99454.09;4980595;28;45571;-58
2022/04/24 04:50:13;;;;;;;;;16.50;13.25;;;;;13.76;42.53;99454.31;4982196;28;45159;-58
2022/04/24 04:52:38;;;;;;;;;16.25;15.25;;;;;13.75;42.80;99457.88;4981923;28;45303;-58
2022/04/24 04:55:04;;;;;;;;;16.50;16.50;;;;;13.76;42.98;99462.25;4982103;28;45213;-58
2022/04/24 04:57:30;;;;;;;;;23.25;23.25;;;;;13.73;42.91;99467.66;4980620;28;45359;-62
2022/04/24 04:59:55;;;;;;;;;13.75;13.50;;;;;13.72;42.98;99471.25;4981990;28;45382;-58
2022/04/24 05:02:21;;;;;;;;;21.50;19.25;;;;;13.72;42.97;99473.03;4980351;28;46043;-58
2022/04/24 05:04:46;;;;;;;;;17.50;16.00;;;;;13.71;42.72;99468.66;4981920;28;45475;-58
2022/04/24 05:07:12;;;;;;;;;12.75;12.75;;;;;13.67;42.78;99473.22;4981859;28;45314;-58
2022/04/24 05:09:38;;;;;;;;;11.50;11.50;;;;;13.68;42.67;99488.16;4981716;28;45291;-58
2022/04/24 05:12:04;;;;;;;;;14.50;13.00;;;;;13.66;43.02;99484.75;4981559;28;45314;-58
2022/04/24 05:14:31;;;;;;;;;12.25;12.25;;;;;13.66;42.72;99492.66;4981671;28;45326;-58
2022/04/24 05:16:56;;;;;;;;;13.50;13.50;;;;;13.64;43.04;99487.44;4980227;28;45204;-58
2022/04/24 05:19:22;;;;;;;;;14.50;12.50;;;;;13.63;42.82;99491.03;4981307;28;45403;-58
2022/04/24 05:21:48;;;;;;;;;14.50;13.50;;;;;13.64;42.91;99499.78;4981389;28;46444;-58
2022/04/24 05:24:13;;;;;;;;;15.25;13.00;;;;;13.63;42.73;99504.22;4974179;28;45482;-58
2022/04/24 05:26:40;;;;;;;;;17.00;13.25;;;;;13.63;42.92;99504.22;4978244;28;45218;-58
2022/04/24 05:29:06;;;;;;;;;12.50;12.50;;;;;13.63;42.86;99508.63;4981431;28;45302;-58
2022/04/24 05:31:31;;;;;;;;;12.25;12.25;;;;;13.62;43.29;99507.78;4977480;28;45342;-58
2022/04/24 05:33:56;;;;;;;;;14.50;14.50;;;;;13.61;42.93;99510.47;4981196;28;45432;-58
2022/04/24 05:36:22;;;;;;;;;13.50;13.50;;;;;13.62;43.16;99526.25;4981455;28;45330;-58
2022/04/24 05:38:47;;;;;;;;;10.75;10.25;;;;;13.62;43.25;99523.63;4981237;28;45324;-58
2022/04/24 05:41:12;;;;;;;;;15.50;13.00;;;;;13.59;43.29;99518.47;4981028;28;45344;-58
2022/04/24 05:43:38;;;;;;;;;14.25;14.25;;;;;13.63;43.24;99527.09;4981217;28;45452;-58
2022/04/24 05:46:03;;;;;;;;;12.00;12.00;;;;;13.63;43.32;99514.78;4981401;28;45406;-58
2022/04/24 05:48:29;;;;;;;;;15.25;15.25;;;;;13.63;43.37;99519.19;4981052;28;45520;-58
2022/04/24 05:50:54;;;;;;;;;11.75;11.75;;;;;13.64;43.37;99515.63;4979649;28;46105;-58
2022/04/24 05:53:20;;;;;;;;;13.25;12.75;;;;;13.64;43.26;99515.63;4981164;28;45433;-58
2022/04/24 05:55:45;;;;;;;;;16.25;15.75;;;;;13.65;42.81;99523.47;4981236;28;45330;-58
2022/04/24 05:58:10;;;;;;;;;21.25;18.75;;;;;13.68;43.56;99525.09;4979691;28;45156;-58
2022/04/24 06:00:38;;;;;;;;;16.75;15.75;;;;;13.67;43.39;99528.66;4980957;28;45215;-61
2022/04/24 06:03:04;;;;;;;;;17.25;16.00;;;;;13.69;43.45;99531.25;4980662;28;45366;-58
2022/04/24 06:05:30;;;;;;;;;12.75;12.75;;;;;13.71;43.17;99534.66;4980889;28;45251;-58
2022/04/24 06:07:56;;;;;;;;;17.50;17.00;;;;;13.72;43.52;99534.63;4980853;28;45591;-58
2022/04/24 06:10:21;;;;;;;;;13.00;13.00;;;;;13.74;43.14;99537.19;4980552;28;46133;-58
2022/04/24 06:12:50;;;;;;;;;16.50;16.50;;;;;13.76;43.56;99540.56;4980499;28;45301;-58
2022/04/24 06:15:20;;;;;;;;;13.00;11.50;;;;;13.78;43.56;99538.75;4980889;28;45260;-58
2022/04/24 06:17:47;;;;;;;;;21.75;20.00;;;;;13.80;43.43;99544.81;4980621;28;45498;-58
2022/04/24 06:20:13;;;;;;;;;22.50;22.50;;;;;13.84;43.45;99545.53;4980553;28;45672;-58
2022/04/24 06:22:46;;;;;;;;;18.25;17.50;;;;;13.83;43.29;99547.28;4980689;28;45338;-57
2022/04/24 06:25:16;;;;;;;;;23.00;22.50;;;;;13.88;43.19;99540.00;4980407;28;45382;-58
2022/04/24 06:27:42;;;;;;;;;17.50;17.50;;;;;13.89;43.57;99547.00;4980611;28;45564;-58
2022/04/24 06:30:09;;;;;;;;;21.75;17.75;;;;;13.90;43.18;99543.44;4980398;28;46081;-58
2022/04/24 06:32:39;;;;;;;;;19.50;18.25;;;;;13.93;43.68;99545.09;4979989;28;45516;-58
2022/04/24 06:35:05;;;;;;;;;17.00;15.25;;;;;13.98;43.57;99556.28;4980415;28;45322;-58
2022/04/24 06:37:30;;;;;;;;;18.00;18.00;;;;;14.00;43.45;99553.56;4980459;28;45187;-58
2022/04/24 06:39:56;;;;;;;;;19.50;15.00;;;;;14.03;43.64;99558.72;4978856;28;46995;-58
2022/04/24 06:42:22;;;;;;;;;16.25;15.00;;;;;14.08;43.36;99554.06;4980353;28;45432;-58
2022/04/24 06:44:48;;;;;;;;;17.50;17.25;;;;;14.06;43.19;99548.00;4980563;28;45341;-58
2022/04/24 06:47:13;;;;;;;;;19.25;18.50;;;;;14.12;43.75;99555.63;4980101;28;45225;-58
2022/04/24 06:49:39;;;;;;;;;18.75;17.00;;;;;14.13;43.34;99560.84;4978765;28;47262;-58
2022/04/24 06:52:05;;;;;;;;;19.25;19.25;;;;;14.17;43.45;99555.41;4980511;28;45398;-58
2022/04/24 06:54:30;;;;;;;;;18.75;18.75;;;;;14.22;43.63;99558.69;4980189;28;45298;-58
2022/04/24 06:56:58;;;;;;;;;20.25;17.50;;;;;14.25;43.37;99564.69;4980291;28;45330;-58
2022/04/24 06:59:23;;;;;;;;;23.75;18.75;;;;;14.26;43.87;99566.41;4979874;28;46338;-58
2022/04/24 07:01:48;;;;;;;;;20.75;19.00;;;;;14.30;43.62;99562.69;4980145;28;45368;-58
2022/04/24 07:04:14;;;;;;;;;22.75;21.50;;;;;14.34;43.34;99559.88;4979905;28;45436;-58
2022/04/24 07:06:39;;;;;;;;;22.50;22.25;;;;;14.36;43.21;99566.78;4980369;28;45309;-58
2022/04/24 07:09:04;;;;;;;;;23.75;20.50;;;;;14.43;43.43;99567.38;4979655;28;46191;-58
2022/04/24 07:11:30;;;;;;;;;17.75;16.75;;;;;14.47;43.64;99575.06;4980025;28;45345;-58
2022/04/24 07:13:55;;;;;;;;;22.00;19.75;;;;;14.50;43.73;99574.06;4978813;28;45419;-58
2022/04/24 07:16:20;;;;;;;;;16.25;13.00;;;;;14.54;43.32;99570.34;4980120;28;45468;-58
2022/04/24 07:18:46;;;;;;;;;21.75;20.00;;;;;14.60;43.55;99574.47;4979544;28;45346;-58
2022/04/24 07:21:11;;;;;;;;;26.75;22.75;;;;;14.65;43.36;99576.91;4979927;28;45245;-58
2022/04/24 07:23:37;;;;;;;;;22.00;19.25;;;;;14.66;43.44;99576.00;4979878;28;45199;-58
2022/04/24 07:26:02;;;;;;;;;20.75;19.25;;;;;14.72;43.34;99580.97;4980974;28;45455;-58
2022/04/24 07:28:30;;;;;;;;;26.50;21.75;;;;;14.76;43.56;99582.53;4982929;28;45936;-58
2022/04/24 07:30:55;;;;;;;;;24.50;20.50;;;;;14.82;43.18;99584.88;4982852;28;46572;-59
2022/04/24 07:33:21;;;;;;;;;24.25;22.00;;;;;14.84;43.84;99588.31;4982899;28;45277;-58
2022/04/24 07:35:47;;;;;;;;;25.00;25.00;;;;;14.92;43.19;99590.56;4983146;28;45318;-58
2022/04/24 07:38:12;;;;;;;;;25.25;23.25;;;;;14.95;43.55;99596.56;4982876;28;45305;-58
2022/04/24 07:40:42;;;;;;;;;26.50;25.00;;;;;15.01;43.55;99591.88;4983023;28;45341;-57
2022/04/24 07:43:09;;;;;;;;;27.50;25.25;;;;;15.07;43.24;99599.50;4982947;28;45175;-58
2022/04/24 07:45:37;;;;;;;;;25.50;23.75;;;;;15.13;43.54;99593.03;4983167;28;45304;-58
2022/04/24 07:48:04;;;;;;;;;26.75;25.50;;;;;15.19;43.68;99601.50;4982464;28;46036;-57
2022/04/24 07:50:33;;;;;;;;;19.25;19.00;;;;;15.22;43.32;99588.13;4982983;28;45404;-57
2022/04/24 07:52:59;;;;;;;;;22.50;21.00;;;;;15.25;43.06;99587.94;4981581;28;45175;-57
2022/04/24 07:55:24;;;;;;;;;21.50;20.25;;;;;15.37;43.14;99599.72;4982910;28;45238;-57
2022/04/24 07:57:54;;;;;;;;;17.00;13.50;;;;;15.43;43.43;99595.88;4982754;28;45345;-57
2022/04/24 08:00:21;;;;;;;;;31.75;24.25;;;;;15.51;43.40;99595.47;4981502;28;45973;-57
2022/04/24 08:03:00;;;;;;;;;29.25;25.75;;;;;15.55;43.00;99589.94;4982547;28;45165;-56
2022/04/24 08:05:34;;;;;;;;;23.00;21.25;;;;;15.61;43.50;99599.34;4982897;28;45564;-59
2022/04/24 08:08:02;;;;;;;;;27.00;25.75;;;;;15.69;43.25;99602.44;4982732;28;45424;-57
2022/04/24 08:10:31;;;;;;;;;22.50;22.50;;;;;15.74;43.05;99603.03;4982329;28;45338;-57
2022/04/24 08:12:57;;;;;;;;;22.50;22.50;;;;;15.50;43.52;99554.06;4982549;28;45378;-57
2022/04/24 08:15:23;;;;;;;;;21.75;21.00;;;;;15.88;43.04;99606.78;4981135;28;45310;-57
2022/04/24 08:17:48;;;;;;;;;22.75;21.25;;;;;15.93;42.87;99602.91;4982095;28;46233;-57
2022/04/24 08:20:15;;;;;;;;;23.00;21.75;;;;;16.00;43.03;99611.41;4982461;28;45227;-59
2022/04/24 08:22:49;;;;;;;;;26.00;24.50;;;;;16.08;43.40;99613.63;4982557;28;45349;-57
2022/04/24 08:25:19;;;;;;;;;24.75;20.75;;;;;16.16;43.13;99618.50;4982084;28;45412;-57
2022/04/24 08:27:46;;;;;;;;;31.00;24.50;;;;;16.19;43.08;99605.94;4982299;28;45468;-58
2022/04/24 08:30:12;;;;;;;;;24.25;21.50;;;;;16.25;43.22;99608.25;4982146;28;45460;-57
2022/04/24 08:32:39;;;;;;;;;35.00;29.75;;;;;16.29;42.83;99614.25;4981857;28;45184;-58
2022/04/24 08:35:07;;;;;;;;;22.75;21.50;;;;;16.37;42.69;99624.41;4982185;28;45179;-58
2022/04/24 08:37:33;;;;;;;;;26.50;25.50;;;;;16.42;42.91;99617.91;4982119;28;46453;-58
2022/04/24 08:39:58;;;;;;;;;24.00;23.25;;;;;16.50;43.19;99617.50;4981852;28;45326;-58
2022/04/24 08:42:24;;;;;;;;;24.75;21.75;;;;;16.57;42.80;99610.88;4982279;28;45334;-58
2022/04/24 08:44:56;;;;;;;;;30.25;23.75;;;;;16.66;42.69;99611.31;4982129;28;45319;-58
2022/04/24 08:47:24;;;;;;;;;30.75;30.75;;;;;16.74;42.79;99614.34;4980442;28;46506;-58
2022/04/24 08:49:52;;;;;;;;;22.75;21.75;;;;;16.78;42.91;99612.38;4982113;28;45416;-58
2022/04/24 08:52:20;;;;;;;;;27.00;23.75;;;;;16.87;42.68;99611.88;4982049;28;45227;-58
2022/04/24 08:54:46;;;;;;;;;31.00;25.75;;;;;16.97;42.79;99628.13;4981760;28;45428;-59
2022/04/24 08:57:12;;;;;;;;;31.75;26.75;;;;;17.05;42.96;99628.53;4981728;28;46441;-58
2022/04/24 08:59:38;;;;;;;;;41.50;31.00;;;;;17.11;42.40;99625.50;4981854;28;45452;-58
2022/04/24 09:02:05;;;;;;;;;23.25;23.25;;;;;17.18;42.92;99626.88;4981543;28;45437;-59
2022/04/24 09:04:35;;;;;;;;;26.25;23.50;;;;;17.26;42.45;99626.41;4980523;28;45325;-58
2022/04/24 09:07:09;;;;;;;;;24.75;24.25;;;;;17.35;42.21;99632.97;4981540;28;46260;-58
2022/04/24 09:09:42;;;;;;;;;30.75;27.75;;;;;17.43;42.36;99633.34;4981435;28;45282;-58
2022/04/24 09:12:28;;;;;;;;;19.00;16.50;;;;;17.53;42.24;99634.53;4981647;28;45327;-58
2022/04/24 09:14:56;;;;;;;;;27.25;24.75;;;;;17.61;42.31;99630.53;4981540;28;45238;-58
2022/04/24 09:17:30;;;;;;;;;24.50;23.50;;;;;17.70;42.19;99637.94;4981380;28;45449;-58
2022/04/24 09:19:57;;;;;;;;;17.75;16.00;;;;;17.78;42.03;99635.66;4981386;28;45641;-58
2022/04/24 09:22:23;;;;;;;;;27.75;25.75;;;;;17.83;41.89;99638.88;4981549;28;45406;-58
2022/04/24 09:24:55;;;;;;;;;23.00;22.00;;;;;17.93;41.98;99644.47;4971712;28;45375;-58
2022/04/24 09:27:24;;;;;;;;;28.00;27.00;;;;;18.02;41.81;99643.09;4981289;28;46071;-58
2022/04/24 09:29:54;;;;;;;;;26.00;23.50;;;;;18.12;41.79;99646.03;4981149;28;45373;-58
2022/04/24 09:32:20;;;;;;;;;26.25;23.50;;;;;18.17;41.58;99639.44;4980914;28;45282;-58
2022/04/24 09:34:46;;;;;;;;;29.75;27.50;;;;;18.34;41.57;99650.84;4981085;28;45480;-58
2022/04/24 09:37:12;;;;;;;;;30.50;28.25;;;;;18.43;41.79;99650.25;4981172;28;45967;-58
2022/04/24 09:39:38;;;;;;;;;25.00;22.25;;;;;18.58;41.58;99650.19;4980959;28;45274;-58
2022/04/24 09:42:15;;;;;;;;;24.25;22.75;;;;;18.71;41.57;99650.25;4981435;28;45370;-58
2022/04/24 09:44:43;;;;;;;;;30.25;27.50;;;;;18.85;41.71;99658.19;4981049;28;45549;-58
2022/04/24 09:47:09;;;;;;;;;22.00;21.25;;;;;18.99;41.23;99651.97;4980546;28;46230;-58
2022/04/24 09:49:39;;;;;;;;;26.25;26.25;;;;;19.13;41.04;99656.38;4980683;28;45171;-58
2022/04/24 09:52:10;;;;;;;;;23.75;20.50;;;;;19.25;41.32;99652.88;4981198;28;45247;-58
2022/04/24 09:54:41;;;;;;;;;29.00;27.75;;;;;19.38;41.07;99660.03;4981003;28;45457;-58
2022/04/24 09:57:09;;;;;;;;;25.25;22.75;;;;;19.52;40.98;99664.44;4980858;28;45461;-58
2022/04/24 09:59:37;;;;;;;;;26.50;24.50;;;;;19.69;40.62;99669.44;4979612;28;45292;-58
2022/04/24 10:02:04;;;;;;;;;29.00;23.25;;;;;19.85;40.72;99676.41;4980900;28;45379;-58
2022/04/24 10:04:29;;;;;;;;;26.75;24.75;;;;;20.02;40.43;99673.41;4979868;28;45411;-58
2022/04/24 10:06:56;;;;;;;;;24.00;22.00;;;;;20.14;40.97;99677.88;4980631;28;45406;-58
2022/04/24 10:09:23;;;;;;;;;26.00;25.00;;;;;20.25;40.66;99669.13;4979504;28;45290;-58
2022/04/24 10:11:50;;;;;;;;;28.50;24.00;;;;;20.40;40.64;99667.16;4980813;28;45307;-58
2022/04/24 10:14:16;;;;;;;;;28.00;25.25;;;;;20.49;40.65;99662.97;4980738;28;45297;-58
2022/04/24 10:16:56;;;;;;;;;28.75;25.50;;;;;20.65;39.96;99675.19;4980672;28;45338;-58
2022/04/24 10:19:21;;;;;;;;;23.00;21.25;;;;;20.77;40.20;99683.16;4980738;28;45231;-58
2022/04/24 10:22:25;;;;;;;;;31.25;27.25;;;;;20.93;39.93;99685.56;4980683;28;45263;-58
2022/04/24 10:25:00;;;;;;;;;24.50;21.50;;;;;21.11;39.68;99686.00;4966492;28;45427;-58
2022/04/24 10:27:42;;;;;;;;;26.75;22.50;;;;;21.27;39.84;99690.22;4963299;28;45565;-58
2022/04/24 10:30:17;;;;;;;;;21.50;21.50;;;;;21.42;39.83;99694.38;4978843;28;45282;-58
2022/04/24 10:32:45;;;;;;;;;23.00;20.00;;;;;21.58;39.63;99695.91;4979936;28;45434;-58
2022/04/24 10:35:19;;;;;;;;;26.00;22.75;;;;;21.73;39.52;99702.72;4980399;28;45432;-58
2022/04/24 10:37:47;;;;;;;;;23.25;20.25;;;;;21.82;39.22;99700.31;4980246;28;46140;-58
2022/04/24 10:40:16;;;;;;;;;26.75;25.00;;;;;21.89;39.00;99713.09;4980191;28;45258;-57
2022/04/24 10:42:43;;;;;;;;;19.50;18.50;;;;;21.97;39.02;99712.47;4980330;28;45353;-57
2022/04/24 10:45:14;;;;;;;;;30.50;26.00;;;;;21.99;38.53;99715.06;4980243;28;45337;-58
2022/04/24 10:47:48;;;;;;;;;33.75;27.25;;;;;22.08;38.99;99719.66;4979947;28;45432;-58
2022/04/24 10:50:15;;;;;;;;;12.50;11.75;;;;;22.12;38.64;99718.44;4979003;28;45257;-58
2022/04/24 10:52:43;;;;;;;;;24.50;23.75;;;;;22.20;38.71;99728.53;4980336;28;45344;-58
2022/04/24 10:55:23;;;;;;;;;26.50;25.50;;;;;22.28;38.51;99727.97;4980036;28;45433;-58
2022/04/24 10:57:55;;;;;;;;;20.50;20.00;;;;;22.32;38.61;99730.25;4979920;28;45399;-58
2022/04/24 11:00:27;;;;;;;;;19.50;18.75;;;;;22.39;38.63;99733.34;4980383;28;45342;-58
2022/04/24 11:02:52;;;;;;;;;25.75;24.50;;;;;22.42;38.35;99730.41;4982119;28;45428;-58
2022/04/24 11:05:26;;;;;;;;;24.50;21.50;;;;;22.40;38.11;99722.50;4983577;28;45327;-58
2022/04/24 11:08:05;;;;;;;;;40.00;33.50;;;;;22.41;37.65;99723.34;4983492;28;45482;-58
2022/04/24 11:10:38;;;;;;;;;26.75;24.00;;;;;22.46;38.13;99729.19;4983320;28;45438;-58
2022/04/24 11:13:04;;;;;;;;;27.75;27.00;;;;;22.49;37.90;99730.75;4983435;28;45251;-58
2022/04/24 11:15:29;;;;;;;;;28.00;24.25;;;;;22.51;38.15;99735.00;4983284;28;45596;-58
2022/04/24 11:17:55;;;;;;;;;29.00;26.25;;;;;22.55;38.18;99739.16;4983196;28;45422;-58